sensor_id;sensor_type;location;lat;lon;timestamp;P1;durP1;ratioP1;P2;durP2;ratioP2
11048;SDS011;5577;42.706;23.160;2023-04-24T00:00:20;16.43;;;10.03;;
11048;SDS011;5577;42.706;23.160;2023-04-24T00:03:04;18.93;;;13.63;;
11048;SDS011;5577;42.706;23.160;2023-04-24T00:05:49;20.80;;;13.40;;
11048;SDS011;5577;42.706;23.160;2023-04-24T00:08:33;13.30;;;10.13;;
11048;SDS011;5577;42.706;23.160;2023-04-24T00:11:18;12.53;;;10.67;;
11048;SDS011;5577;42.706;23.160;2023-04-24T00:14:03;13.70;;;11.40;;
11048;SDS011;5577;42.706;23.160;2023-04-24T00:16:47;12.87;;;10.53;;
11048;SDS011;5577;42.706;23.160;2023-04-24T00:19:31;14.50;;;10.90;;
11048;SDS011;5577;42.706;23.160;2023-04-24T00:22:15;14.77;;;10.60;;
11048;SDS011;5577;42.706;23.160;2023-04-24T00:24:59;13.53;;;10.23;;
11048;SDS011;5577;42.706;23.160;2023-04-24T00:27:43;13.67;;;10.57;;
11048;SDS011;5577;42.706;23.160;2023-04-24T00:30:27;11.90;;;10.07;;
11048;SDS011;5577;42.706;23.160;2023-04-24T00:33:11;13.80;;;9.67;;
11048;SDS011;5577;42.706;23.160;2023-04-24T00:35:55;13.70;;;10.70;;
11048;SDS011;5577;42.706;23.160;2023-04-24T00:38:39;13.60;;;10.30;;
11048;SDS011;5577;42.706;23.160;2023-04-24T00:41:24;12.77;;;10.47;;
11048;SDS011;5577;42.706;23.160;2023-04-24T00:44:09;12.53;;;10.80;;
11048;SDS011;5577;42.706;23.160;2023-04-24T00:46:53;15.57;;;11.77;;
11048;SDS011;5577;42.706;23.160;2023-04-24T00:49:38;15.63;;;11.30;;
11048;SDS011;5577;42.706;23.160;2023-04-24T00:52:22;16.77;;;12.30;;
11048;SDS011;5577;42.706;23.160;2023-04-24T00:55:08;13.50;;;11.87;;
11048;SDS011;5577;42.706;23.160;2023-04-24T00:57:53;16.47;;;12.53;;
11048;SDS011;5577;42.706;23.160;2023-04-24T01:00:37;15.00;;;11.97;;
11048;SDS011;5577;42.706;23.160;2023-04-24T01:03:22;15.73;;;12.13;;
11048;SDS011;5577;42.706;23.160;2023-04-24T01:06:09;16.27;;;12.37;;
11048;SDS011;5577;42.706;23.160;2023-04-24T01:08:54;15.07;;;11.33;;
11048;SDS011;5577;42.706;23.160;2023-04-24T01:11:39;14.10;;;10.60;;
11048;SDS011;5577;42.706;23.160;2023-04-24T01:14:25;11.33;;;9.87;;
11048;SDS011;5577;42.706;23.160;2023-04-24T01:17:09;11.47;;;9.27;;
11048;SDS011;5577;42.706;23.160;2023-04-24T01:19:54;10.83;;;9.70;;
11048;SDS011;5577;42.706;23.160;2023-04-24T01:22:40;11.77;;;9.73;;
11048;SDS011;5577;42.706;23.160;2023-04-24T01:25:25;14.23;;;10.27;;
11048;SDS011;5577;42.706;23.160;2023-04-24T01:28:11;13.23;;;10.73;;
11048;SDS011;5577;42.706;23.160;2023-04-24T01:30:57;11.47;;;10.23;;
11048;SDS011;5577;42.706;23.160;2023-04-24T01:33:42;11.00;;;9.73;;
11048;SDS011;5577;42.706;23.160;2023-04-24T01:36:26;11.37;;;10.10;;
11048;SDS011;5577;42.706;23.160;2023-04-24T01:39:12;12.63;;;9.50;;
11048;SDS011;5577;42.706;23.160;2023-04-24T01:41:56;13.63;;;9.80;;
11048;SDS011;5577;42.706;23.160;2023-04-24T01:44:41;11.60;;;9.10;;
11048;SDS011;5577;42.706;23.160;2023-04-24T01:47:25;11.23;;;8.87;;
11048;SDS011;5577;42.706;23.160;2023-04-24T01:50:10;11.87;;;9.10;;
11048;SDS011;5577;42.706;23.160;2023-04-24T01:52:54;10.97;;;8.20;;
11048;SDS011;5577;42.706;23.160;2023-04-24T01:55:38;9.60;;;7.53;;
11048;SDS011;5577;42.706;23.160;2023-04-24T01:58:23;8.83;;;7.90;;
11048;SDS011;5577;42.706;23.160;2023-04-24T02:01:07;9.27;;;7.90;;
11048;SDS011;5577;42.706;23.160;2023-04-24T02:03:51;12.60;;;9.17;;
11048;SDS011;5577;42.706;23.160;2023-04-24T02:06:35;10.23;;;9.17;;
11048;SDS011;5577;42.706;23.160;2023-04-24T02:09:19;10.53;;;8.73;;
11048;SDS011;5577;42.706;23.160;2023-04-24T02:12:04;10.87;;;9.10;;
11048;SDS011;5577;42.706;23.160;2023-04-24T02:14:48;12.00;;;9.03;;
11048;SDS011;5577;42.706;23.160;2023-04-24T02:17:32;10.93;;;9.47;;
11048;SDS011;5577;42.706;23.160;2023-04-24T02:20:16;12.90;;;9.73;;
11048;SDS011;5577;42.706;23.160;2023-04-24T02:23:01;13.03;;;10.53;;
11048;SDS011;5577;42.706;23.160;2023-04-24T02:25:45;15.27;;;9.30;;
11048;SDS011;5577;42.706;23.160;2023-04-24T02:28:29;13.60;;;10.50;;
11048;SDS011;5577;42.706;23.160;2023-04-24T02:31:13;10.40;;;9.10;;
11048;SDS011;5577;42.706;23.160;2023-04-24T02:33:57;11.63;;;9.53;;
11048;SDS011;5577;42.706;23.160;2023-04-24T02:36:41;10.63;;;8.67;;
11048;SDS011;5577;42.706;23.160;2023-04-24T02:39:26;11.43;;;9.40;;
11048;SDS011;5577;42.706;23.160;2023-04-24T02:42:10;12.20;;;9.73;;
11048;SDS011;5577;42.706;23.160;2023-04-24T02:44:53;12.83;;;9.53;;
11048;SDS011;5577;42.706;23.160;2023-04-24T02:47:37;11.73;;;9.63;;
11048;SDS011;5577;42.706;23.160;2023-04-24T02:50:22;13.60;;;9.50;;
11048;SDS011;5577;42.706;23.160;2023-04-24T02:53:05;15.97;;;11.43;;
11048;SDS011;5577;42.706;23.160;2023-04-24T02:55:50;11.33;;;10.13;;
11048;SDS011;5577;42.706;23.160;2023-04-24T02:58:34;28.07;;;18.73;;
11048;SDS011;5577;42.706;23.160;2023-04-24T03:01:19;17.40;;;13.50;;
11048;SDS011;5577;42.706;23.160;2023-04-24T03:04:03;15.87;;;12.60;;
11048;SDS011;5577;42.706;23.160;2023-04-24T03:06:47;15.67;;;12.57;;
11048;SDS011;5577;42.706;23.160;2023-04-24T03:09:31;16.27;;;12.03;;
11048;SDS011;5577;42.706;23.160;2023-04-24T03:12:15;15.40;;;10.97;;
11048;SDS011;5577;42.706;23.160;2023-04-24T03:15:01;14.40;;;11.13;;
11048;SDS011;5577;42.706;23.160;2023-04-24T03:17:45;12.53;;;10.20;;
11048;SDS011;5577;42.706;23.160;2023-04-24T03:20:29;13.67;;;9.63;;
11048;SDS011;5577;42.706;23.160;2023-04-24T03:23:14;14.87;;;9.33;;
11048;SDS011;5577;42.706;23.160;2023-04-24T03:25:59;11.33;;;9.93;;
11048;SDS011;5577;42.706;23.160;2023-04-24T03:28:43;14.63;;;10.60;;
11048;SDS011;5577;42.706;23.160;2023-04-24T03:31:27;12.00;;;10.37;;
11048;SDS011;5577;42.706;23.160;2023-04-24T03:34:11;14.10;;;11.07;;
11048;SDS011;5577;42.706;23.160;2023-04-24T03:36:55;15.47;;;11.53;;
11048;SDS011;5577;42.706;23.160;2023-04-24T03:39:39;27.20;;;14.83;;
11048;SDS011;5577;42.706;23.160;2023-04-24T03:42:23;17.20;;;12.40;;
11048;SDS011;5577;42.706;23.160;2023-04-24T03:45:07;13.10;;;9.03;;
11048;SDS011;5577;42.706;23.160;2023-04-24T03:47:52;12.17;;;8.80;;
11048;SDS011;5577;42.706;23.160;2023-04-24T03:50:35;12.93;;;9.37;;
11048;SDS011;5577;42.706;23.160;2023-04-24T03:53:19;16.27;;;12.37;;
11048;SDS011;5577;42.706;23.160;2023-04-24T03:56:03;16.30;;;11.63;;
11048;SDS011;5577;42.706;23.160;2023-04-24T03:58:47;14.70;;;10.90;;
11048;SDS011;5577;42.706;23.160;2023-04-24T04:01:31;20.30;;;12.30;;
11048;SDS011;5577;42.706;23.160;2023-04-24T04:04:15;16.30;;;10.70;;
11048;SDS011;5577;42.706;23.160;2023-04-24T04:06:59;12.00;;;10.03;;
11048;SDS011;5577;42.706;23.160;2023-04-24T04:09:46;15.10;;;10.37;;
11048;SDS011;5577;42.706;23.160;2023-04-24T04:12:30;13.67;;;11.53;;
11048;SDS011;5577;42.706;23.160;2023-04-24T04:15:14;14.93;;;11.30;;
11048;SDS011;5577;42.706;23.160;2023-04-24T04:17:58;13.83;;;10.03;;
11048;SDS011;5577;42.706;23.160;2023-04-24T04:20:42;16.07;;;10.40;;
11048;SDS011;5577;42.706;23.160;2023-04-24T04:23:26;13.07;;;10.30;;
11048;SDS011;5577;42.706;23.160;2023-04-24T04:26:12;11.97;;;9.67;;
11048;SDS011;5577;42.706;23.160;2023-04-24T04:28:59;16.90;;;9.47;;
11048;SDS011;5577;42.706;23.160;2023-04-24T04:31:47;11.20;;;9.27;;
11048;SDS011;5577;42.706;23.160;2023-04-24T04:34:31;10.17;;;9.00;;
11048;SDS011;5577;42.706;23.160;2023-04-24T04:37:14;9.63;;;8.10;;
11048;SDS011;5577;42.706;23.160;2023-04-24T04:39:59;9.30;;;8.30;;
11048;SDS011;5577;42.706;23.160;2023-04-24T04:42:44;10.17;;;8.97;;
11048;SDS011;5577;42.706;23.160;2023-04-24T04:45:29;11.30;;;9.30;;
11048;SDS011;5577;42.706;23.160;2023-04-24T04:48:14;11.37;;;8.60;;
11048;SDS011;5577;42.706;23.160;2023-04-24T04:51:01;8.67;;;7.87;;
11048;SDS011;5577;42.706;23.160;2023-04-24T04:53:45;10.77;;;8.13;;
11048;SDS011;5577;42.706;23.160;2023-04-24T04:56:29;9.93;;;7.90;;
11048;SDS011;5577;42.706;23.160;2023-04-24T04:59:13;10.63;;;7.90;;
11048;SDS011;5577;42.706;23.160;2023-04-24T05:01:57;9.07;;;7.07;;
11048;SDS011;5577;42.706;23.160;2023-04-24T05:04:41;9.80;;;7.23;;
11048;SDS011;5577;42.706;23.160;2023-04-24T05:07:25;8.07;;;7.17;;
11048;SDS011;5577;42.706;23.160;2023-04-24T05:10:09;10.23;;;7.33;;
11048;SDS011;5577;42.706;23.160;2023-04-24T05:12:54;10.23;;;7.23;;
11048;SDS011;5577;42.706;23.160;2023-04-24T05:15:38;10.17;;;7.03;;
11048;SDS011;5577;42.706;23.160;2023-04-24T05:18:22;9.67;;;7.37;;
11048;SDS011;5577;42.706;23.160;2023-04-24T05:21:06;10.80;;;6.97;;
11048;SDS011;5577;42.706;23.160;2023-04-24T05:23:49;8.03;;;7.30;;
11048;SDS011;5577;42.706;23.160;2023-04-24T05:26:34;11.37;;;7.73;;
11048;SDS011;5577;42.706;23.160;2023-04-24T05:29:19;10.13;;;7.40;;
11048;SDS011;5577;42.706;23.160;2023-04-24T05:32:03;8.97;;;6.93;;
11048;SDS011;5577;42.706;23.160;2023-04-24T05:34:48;9.87;;;7.63;;
11048;SDS011;5577;42.706;23.160;2023-04-24T05:37:32;10.90;;;8.13;;
11048;SDS011;5577;42.706;23.160;2023-04-24T05:40:16;11.47;;;7.43;;
11048;SDS011;5577;42.706;23.160;2023-04-24T05:43:00;13.17;;;7.83;;
11048;SDS011;5577;42.706;23.160;2023-04-24T05:45:44;8.77;;;7.40;;
11048;SDS011;5577;42.706;23.160;2023-04-24T05:48:28;8.33;;;7.40;;
11048;SDS011;5577;42.706;23.160;2023-04-24T05:51:12;9.87;;;7.73;;
11048;SDS011;5577;42.706;23.160;2023-04-24T05:53:56;13.60;;;8.10;;
11048;SDS011;5577;42.706;23.160;2023-04-24T05:56:39;9.60;;;7.97;;
11048;SDS011;5577;42.706;23.160;2023-04-24T05:59:24;13.37;;;9.13;;
11048;SDS011;5577;42.706;23.160;2023-04-24T06:02:09;9.80;;;7.37;;
11048;SDS011;5577;42.706;23.160;2023-04-24T06:04:53;12.10;;;8.33;;
11048;SDS011;5577;42.706;23.160;2023-04-24T06:07:37;9.80;;;7.90;;
11048;SDS011;5577;42.706;23.160;2023-04-24T06:10:21;12.83;;;7.90;;
11048;SDS011;5577;42.706;23.160;2023-04-24T06:13:05;11.70;;;8.80;;
11048;SDS011;5577;42.706;23.160;2023-04-24T06:15:49;15.07;;;8.83;;
11048;SDS011;5577;42.706;23.160;2023-04-24T06:18:32;11.47;;;8.33;;
11048;SDS011;5577;42.706;23.160;2023-04-24T06:21:17;14.90;;;8.67;;
11048;SDS011;5577;42.706;23.160;2023-04-24T06:24:01;12.27;;;8.73;;
11048;SDS011;5577;42.706;23.160;2023-04-24T06:26:47;9.90;;;8.60;;
11048;SDS011;5577;42.706;23.160;2023-04-24T06:29:31;17.30;;;9.30;;
11048;SDS011;5577;42.706;23.160;2023-04-24T06:32:15;14.40;;;8.97;;
11048;SDS011;5577;42.706;23.160;2023-04-24T06:34:59;10.50;;;8.77;;
11048;SDS011;5577;42.706;23.160;2023-04-24T06:37:43;11.37;;;8.77;;
11048;SDS011;5577;42.706;23.160;2023-04-24T06:40:27;17.03;;;9.97;;
11048;SDS011;5577;42.706;23.160;2023-04-24T06:43:11;12.97;;;8.23;;
11048;SDS011;5577;42.706;23.160;2023-04-24T06:45:55;12.37;;;9.60;;
11048;SDS011;5577;42.706;23.160;2023-04-24T06:48:40;9.70;;;8.70;;
11048;SDS011;5577;42.706;23.160;2023-04-24T06:51:24;13.73;;;9.53;;
11048;SDS011;5577;42.706;23.160;2023-04-24T06:54:10;10.03;;;8.60;;
11048;SDS011;5577;42.706;23.160;2023-04-24T06:56:54;13.17;;;9.30;;
11048;SDS011;5577;42.706;23.160;2023-04-24T06:59:38;10.73;;;9.03;;
11048;SDS011;5577;42.706;23.160;2023-04-24T07:02:23;11.57;;;8.77;;
11048;SDS011;5577;42.706;23.160;2023-04-24T07:05:07;10.67;;;8.87;;
11048;SDS011;5577;42.706;23.160;2023-04-24T07:07:52;12.17;;;8.53;;
11048;SDS011;5577;42.706;23.160;2023-04-24T07:10:36;10.40;;;7.57;;
11048;SDS011;5577;42.706;23.160;2023-04-24T07:13:20;8.33;;;7.30;;
11048;SDS011;5577;42.706;23.160;2023-04-24T07:16:04;8.60;;;7.50;;
11048;SDS011;5577;42.706;23.160;2023-04-24T07:18:48;10.20;;;7.10;;
11048;SDS011;5577;42.706;23.160;2023-04-24T07:21:32;8.33;;;7.33;;
11048;SDS011;5577;42.706;23.160;2023-04-24T07:24:16;8.70;;;7.10;;
11048;SDS011;5577;42.706;23.160;2023-04-24T07:27:00;9.20;;;6.53;;
11048;SDS011;5577;42.706;23.160;2023-04-24T07:29:47;7.63;;;6.83;;
11048;SDS011;5577;42.706;23.160;2023-04-24T07:32:31;8.53;;;6.37;;
11048;SDS011;5577;42.706;23.160;2023-04-24T07:35:15;8.50;;;7.60;;
11048;SDS011;5577;42.706;23.160;2023-04-24T07:38:00;8.87;;;7.23;;
11048;SDS011;5577;42.706;23.160;2023-04-24T07:40:44;10.53;;;7.70;;
11048;SDS011;5577;42.706;23.160;2023-04-24T07:43:28;11.30;;;8.13;;
11048;SDS011;5577;42.706;23.160;2023-04-24T07:46:12;9.03;;;7.37;;
11048;SDS011;5577;42.706;23.160;2023-04-24T07:48:55;8.13;;;6.97;;
11048;SDS011;5577;42.706;23.160;2023-04-24T07:51:40;9.63;;;6.87;;
11048;SDS011;5577;42.706;23.160;2023-04-24T07:54:24;9.40;;;6.90;;
11048;SDS011;5577;42.706;23.160;2023-04-24T07:57:09;7.90;;;6.97;;
11048;SDS011;5577;42.706;23.160;2023-04-24T07:59:53;8.03;;;6.60;;
11048;SDS011;5577;42.706;23.160;2023-04-24T08:02:37;9.20;;;6.60;;
11048;SDS011;5577;42.706;23.160;2023-04-24T08:05:21;8.63;;;7.33;;
11048;SDS011;5577;42.706;23.160;2023-04-24T08:08:05;10.53;;;7.43;;
11048;SDS011;5577;42.706;23.160;2023-04-24T08:10:49;11.90;;;7.73;;
11048;SDS011;5577;42.706;23.160;2023-04-24T08:13:33;9.97;;;7.77;;
11048;SDS011;5577;42.706;23.160;2023-04-24T08:16:17;8.70;;;7.13;;
11048;SDS011;5577;42.706;23.160;2023-04-24T08:19:01;10.77;;;7.03;;
11048;SDS011;5577;42.706;23.160;2023-04-24T08:21:45;8.50;;;6.80;;
11048;SDS011;5577;42.706;23.160;2023-04-24T08:24:29;7.60;;;6.80;;
11048;SDS011;5577;42.706;23.160;2023-04-24T08:27:12;8.97;;;7.17;;
11048;SDS011;5577;42.706;23.160;2023-04-24T08:29:57;10.17;;;7.20;;
11048;SDS011;5577;42.706;23.160;2023-04-24T08:32:41;8.73;;;7.37;;
11048;SDS011;5577;42.706;23.160;2023-04-24T08:35:25;9.03;;;7.60;;
11048;SDS011;5577;42.706;23.160;2023-04-24T08:38:09;9.43;;;7.00;;
11048;SDS011;5577;42.706;23.160;2023-04-24T08:40:53;9.53;;;7.03;;
11048;SDS011;5577;42.706;23.160;2023-04-24T08:43:38;9.50;;;7.13;;
11048;SDS011;5577;42.706;23.160;2023-04-24T08:46:22;8.47;;;7.00;;
11048;SDS011;5577;42.706;23.160;2023-04-24T08:49:07;9.07;;;7.63;;
11048;SDS011;5577;42.706;23.160;2023-04-24T08:51:52;8.63;;;7.50;;
11048;SDS011;5577;42.706;23.160;2023-04-24T08:54:36;9.27;;;8.10;;
11048;SDS011;5577;42.706;23.160;2023-04-24T08:57:21;11.73;;;7.33;;
11048;SDS011;5577;42.706;23.160;2023-04-24T09:00:06;11.63;;;7.70;;
11048;SDS011;5577;42.706;23.160;2023-04-24T09:02:51;9.87;;;8.30;;
11048;SDS011;5577;42.706;23.160;2023-04-24T09:05:37;10.33;;;8.00;;
11048;SDS011;5577;42.706;23.160;2023-04-24T09:08:22;8.83;;;7.67;;
11048;SDS011;5577;42.706;23.160;2023-04-24T09:11:08;10.63;;;7.40;;
11048;SDS011;5577;42.706;23.160;2023-04-24T09:13:54;9.47;;;7.80;;
11048;SDS011;5577;42.706;23.160;2023-04-24T09:16:38;8.20;;;7.03;;
11048;SDS011;5577;42.706;23.160;2023-04-24T09:19:22;9.33;;;7.07;;
11048;SDS011;5577;42.706;23.160;2023-04-24T09:22:07;8.67;;;7.20;;
11048;SDS011;5577;42.706;23.160;2023-04-24T09:25:04;11.63;;;8.20;;
11048;SDS011;5577;42.706;23.160;2023-04-24T09:27:53;9.83;;;6.70;;
11048;SDS011;5577;42.706;23.160;2023-04-24T09:30:38;10.77;;;7.10;;
11048;SDS011;5577;42.706;23.160;2023-04-24T09:33:22;11.03;;;6.87;;
11048;SDS011;5577;42.706;23.160;2023-04-24T09:36:06;8.47;;;6.97;;
11048;SDS011;5577;42.706;23.160;2023-04-24T09:38:50;8.67;;;6.70;;
11048;SDS011;5577;42.706;23.160;2023-04-24T09:44:34;9.13;;;7.10;;
11048;SDS011;5577;42.706;23.160;2023-04-24T09:47:18;9.53;;;6.90;;
11048;SDS011;5577;42.706;23.160;2023-04-24T09:50:09;7.77;;;6.97;;
11048;SDS011;5577;42.706;23.160;2023-04-24T09:53:02;9.70;;;7.00;;
11048;SDS011;5577;42.706;23.160;2023-04-24T09:55:47;7.70;;;5.70;;
11048;SDS011;5577;42.706;23.160;2023-04-24T09:58:34;7.13;;;4.80;;
11048;SDS011;5577;42.706;23.160;2023-04-24T10:01:29;6.13;;;5.10;;
11048;SDS011;5577;42.706;23.160;2023-04-24T10:04:26;5.53;;;4.50;;
11048;SDS011;5577;42.706;23.160;2023-04-24T10:07:11;6.00;;;4.50;;
11048;SDS011;5577;42.706;23.160;2023-04-24T10:09:55;5.63;;;4.10;;
11048;SDS011;5577;42.706;23.160;2023-04-24T10:12:39;4.10;;;3.70;;
11048;SDS011;5577;42.706;23.160;2023-04-24T10:15:24;5.10;;;4.00;;
11048;SDS011;5577;42.706;23.160;2023-04-24T10:18:10;5.47;;;4.40;;
11048;SDS011;5577;42.706;23.160;2023-04-24T10:20:54;4.27;;;3.73;;
11048;SDS011;5577;42.706;23.160;2023-04-24T10:23:38;4.33;;;3.93;;
11048;SDS011;5577;42.706;23.160;2023-04-24T10:26:23;4.63;;;4.00;;
11048;SDS011;5577;42.706;23.160;2023-04-24T10:29:07;5.87;;;4.23;;
11048;SDS011;5577;42.706;23.160;2023-04-24T10:31:56;4.23;;;3.83;;
11048;SDS011;5577;42.706;23.160;2023-04-24T10:34:40;5.47;;;4.33;;
11048;SDS011;5577;42.706;23.160;2023-04-24T10:37:25;5.77;;;4.20;;
11048;SDS011;5577;42.706;23.160;2023-04-24T10:40:10;6.03;;;4.80;;
11048;SDS011;5577;42.706;23.160;2023-04-24T10:42:55;5.47;;;4.40;;
11048;SDS011;5577;42.706;23.160;2023-04-24T10:45:40;5.37;;;3.70;;
11048;SDS011;5577;42.706;23.160;2023-04-24T10:48:26;5.33;;;3.80;;
11048;SDS011;5577;42.706;23.160;2023-04-24T10:51:14;4.00;;;3.63;;
11048;SDS011;5577;42.706;23.160;2023-04-24T10:53:58;5.43;;;3.60;;
11048;SDS011;5577;42.706;23.160;2023-04-24T10:56:43;4.30;;;3.87;;
11048;SDS011;5577;42.706;23.160;2023-04-24T10:59:27;4.00;;;3.70;;
11048;SDS011;5577;42.706;23.160;2023-04-24T11:02:20;4.77;;;3.37;;
11048;SDS011;5577;42.706;23.160;2023-04-24T11:05:24;4.70;;;4.30;;
11048;SDS011;5577;42.706;23.160;2023-04-24T11:08:39;6.40;;;4.70;;
11048;SDS011;5577;42.706;23.160;2023-04-24T11:11:28;6.60;;;5.20;;
11048;SDS011;5577;42.706;23.160;2023-04-24T11:14:15;5.20;;;4.80;;
11048;SDS011;5577;42.706;23.160;2023-04-24T11:17:00;5.87;;;5.37;;
11048;SDS011;5577;42.706;23.160;2023-04-24T11:19:44;5.83;;;5.23;;
11048;SDS011;5577;42.706;23.160;2023-04-24T11:22:35;6.87;;;5.50;;
11048;SDS011;5577;42.706;23.160;2023-04-24T11:25:20;5.30;;;4.57;;
11048;SDS011;5577;42.706;23.160;2023-04-24T11:28:06;5.13;;;4.50;;
11048;SDS011;5577;42.706;23.160;2023-04-24T11:30:49;4.90;;;4.37;;
11048;SDS011;5577;42.706;23.160;2023-04-24T11:33:34;4.67;;;3.90;;
11048;SDS011;5577;42.706;23.160;2023-04-24T11:36:19;4.13;;;3.80;;
11048;SDS011;5577;42.706;23.160;2023-04-24T11:39:03;4.20;;;3.90;;
11048;SDS011;5577;42.706;23.160;2023-04-24T11:41:48;4.20;;;3.80;;
11048;SDS011;5577;42.706;23.160;2023-04-24T11:44:36;5.90;;;4.40;;
11048;SDS011;5577;42.706;23.160;2023-04-24T11:47:30;6.43;;;4.53;;
11048;SDS011;5577;42.706;23.160;2023-04-24T11:50:17;7.10;;;4.40;;
11048;SDS011;5577;42.706;23.160;2023-04-24T11:53:04;4.93;;;4.53;;
11048;SDS011;5577;42.706;23.160;2023-04-24T11:55:48;5.30;;;4.63;;
11048;SDS011;5577;42.706;23.160;2023-04-24T11:58:35;6.80;;;4.20;;
11048;SDS011;5577;42.706;23.160;2023-04-24T12:01:22;7.43;;;4.87;;
11048;SDS011;5577;42.706;23.160;2023-04-24T12:04:06;5.17;;;4.67;;
11048;SDS011;5577;42.706;23.160;2023-04-24T12:07:00;5.30;;;4.67;;
11048;SDS011;5577;42.706;23.160;2023-04-24T12:09:55;6.97;;;4.73;;
11048;SDS011;5577;42.706;23.160;2023-04-24T12:12:41;4.53;;;4.13;;
11048;SDS011;5577;42.706;23.160;2023-04-24T12:15:25;5.00;;;4.10;;
11048;SDS011;5577;42.706;23.160;2023-04-24T12:18:13;4.73;;;4.33;;
11048;SDS011;5577;42.706;23.160;2023-04-24T12:21:16;5.07;;;4.57;;
11048;SDS011;5577;42.706;23.160;2023-04-24T12:24:05;7.27;;;4.70;;
11048;SDS011;5577;42.706;23.160;2023-04-24T12:26:50;8.57;;;5.00;;
11048;SDS011;5577;42.706;23.160;2023-04-24T12:29:34;5.53;;;4.77;;
11048;SDS011;5577;42.706;23.160;2023-04-24T12:32:18;4.43;;;4.03;;
11048;SDS011;5577;42.706;23.160;2023-04-24T12:35:03;5.60;;;4.60;;
11048;SDS011;5577;42.706;23.160;2023-04-24T12:37:49;5.73;;;4.60;;
11048;SDS011;5577;42.706;23.160;2023-04-24T12:40:34;5.53;;;4.80;;
11048;SDS011;5577;42.706;23.160;2023-04-24T12:43:18;4.90;;;4.50;;
11048;SDS011;5577;42.706;23.160;2023-04-24T12:46:03;5.30;;;4.53;;
11048;SDS011;5577;42.706;23.160;2023-04-24T12:48:48;5.40;;;4.90;;
11048;SDS011;5577;42.706;23.160;2023-04-24T12:51:32;4.33;;;3.90;;
11048;SDS011;5577;42.706;23.160;2023-04-24T12:54:16;4.27;;;3.60;;
11048;SDS011;5577;42.706;23.160;2023-04-24T12:57:00;4.60;;;4.20;;
11048;SDS011;5577;42.706;23.160;2023-04-24T12:59:44;5.93;;;4.57;;
11048;SDS011;5577;42.706;23.160;2023-04-24T13:02:28;4.50;;;4.20;;
11048;SDS011;5577;42.706;23.160;2023-04-24T13:05:14;4.67;;;4.27;;
11048;SDS011;5577;42.706;23.160;2023-04-24T13:07:59;4.77;;;4.37;;
11048;SDS011;5577;42.706;23.160;2023-04-24T13:10:43;4.80;;;4.40;;
11048;SDS011;5577;42.706;23.160;2023-04-24T13:13:27;4.30;;;3.90;;
11048;SDS011;5577;42.706;23.160;2023-04-24T13:16:10;4.23;;;3.93;;
11048;SDS011;5577;42.706;23.160;2023-04-24T13:18:54;5.40;;;4.90;;
11048;SDS011;5577;42.706;23.160;2023-04-24T13:21:39;6.03;;;4.73;;
11048;SDS011;5577;42.706;23.160;2023-04-24T13:24:23;5.20;;;4.70;;
11048;SDS011;5577;42.706;23.160;2023-04-24T13:27:10;5.40;;;4.60;;
11048;SDS011;5577;42.706;23.160;2023-04-24T13:29:54;5.43;;;4.90;;
11048;SDS011;5577;42.706;23.160;2023-04-24T13:32:38;5.67;;;4.63;;
11048;SDS011;5577;42.706;23.160;2023-04-24T13:35:22;4.60;;;4.20;;
11048;SDS011;5577;42.706;23.160;2023-04-24T13:38:06;5.43;;;4.57;;
11048;SDS011;5577;42.706;23.160;2023-04-24T13:40:50;6.30;;;4.53;;
11048;SDS011;5577;42.706;23.160;2023-04-24T13:43:34;4.47;;;4.10;;
11048;SDS011;5577;42.706;23.160;2023-04-24T13:46:19;7.70;;;4.33;;
11048;SDS011;5577;42.706;23.160;2023-04-24T13:49:03;4.67;;;3.83;;
11048;SDS011;5577;42.706;23.160;2023-04-24T13:51:47;4.57;;;3.80;;
11048;SDS011;5577;42.706;23.160;2023-04-24T13:54:31;4.63;;;4.23;;
11048;SDS011;5577;42.706;23.160;2023-04-24T13:57:16;4.47;;;4.07;;
11048;SDS011;5577;42.706;23.160;2023-04-24T14:00:00;5.33;;;3.90;;
11048;SDS011;5577;42.706;23.160;2023-04-24T14:02:47;5.67;;;4.37;;
11048;SDS011;5577;42.706;23.160;2023-04-24T14:05:31;5.73;;;4.17;;
11048;SDS011;5577;42.706;23.160;2023-04-24T14:08:16;5.43;;;4.10;;
11048;SDS011;5577;42.706;23.160;2023-04-24T14:11:00;4.23;;;3.83;;
11048;SDS011;5577;42.706;23.160;2023-04-24T14:13:44;4.23;;;3.87;;
11048;SDS011;5577;42.706;23.160;2023-04-24T14:16:29;4.20;;;3.80;;
11048;SDS011;5577;42.706;23.160;2023-04-24T14:19:14;5.53;;;4.20;;
11048;SDS011;5577;42.706;23.160;2023-04-24T14:21:58;4.43;;;4.03;;
11048;SDS011;5577;42.706;23.160;2023-04-24T14:24:41;4.33;;;3.93;;
11048;SDS011;5577;42.706;23.160;2023-04-24T14:27:25;4.73;;;4.33;;
11048;SDS011;5577;42.706;23.160;2023-04-24T14:30:10;4.37;;;3.97;;
11048;SDS011;5577;42.706;23.160;2023-04-24T14:32:56;4.17;;;3.80;;
11048;SDS011;5577;42.706;23.160;2023-04-24T14:35:40;4.50;;;4.00;;
11048;SDS011;5577;42.706;23.160;2023-04-24T14:38:26;5.47;;;4.20;;
11048;SDS011;5577;42.706;23.160;2023-04-24T14:41:10;4.87;;;4.00;;
11048;SDS011;5577;42.706;23.160;2023-04-24T14:43:55;6.43;;;4.50;;
11048;SDS011;5577;42.706;23.160;2023-04-24T14:46:39;4.33;;;3.80;;
11048;SDS011;5577;42.706;23.160;2023-04-24T14:49:23;6.70;;;4.37;;
11048;SDS011;5577;42.706;23.160;2023-04-24T14:52:07;4.23;;;3.67;;
11048;SDS011;5577;42.706;23.160;2023-04-24T14:54:51;5.17;;;3.77;;
11048;SDS011;5577;42.706;23.160;2023-04-24T14:57:35;6.47;;;4.10;;
11048;SDS011;5577;42.706;23.160;2023-04-24T15:00:19;6.13;;;4.20;;
11048;SDS011;5577;42.706;23.160;2023-04-24T15:03:04;8.90;;;4.67;;
11048;SDS011;5577;42.706;23.160;2023-04-24T15:05:48;7.83;;;4.37;;
11048;SDS011;5577;42.706;23.160;2023-04-24T15:08:32;13.23;;;5.77;;
11048;SDS011;5577;42.706;23.160;2023-04-24T15:11:16;7.47;;;5.23;;
11048;SDS011;5577;42.706;23.160;2023-04-24T15:14:01;8.40;;;6.27;;
11048;SDS011;5577;42.706;23.160;2023-04-24T15:16:45;7.80;;;6.70;;
11048;SDS011;5577;42.706;23.160;2023-04-24T15:19:30;8.17;;;7.37;;
11048;SDS011;5577;42.706;23.160;2023-04-24T15:22:14;9.17;;;6.87;;
11048;SDS011;5577;42.706;23.160;2023-04-24T15:24:58;13.93;;;7.53;;
11048;SDS011;5577;42.706;23.160;2023-04-24T15:27:42;8.43;;;7.60;;
11048;SDS011;5577;42.706;23.160;2023-04-24T15:30:28;7.57;;;6.87;;
11048;SDS011;5577;42.706;23.160;2023-04-24T15:33:12;6.93;;;6.30;;
11048;SDS011;5577;42.706;23.160;2023-04-24T15:35:56;7.80;;;7.17;;
11048;SDS011;5577;42.706;23.160;2023-04-24T15:38:40;10.50;;;7.67;;
11048;SDS011;5577;42.706;23.160;2023-04-24T15:41:26;8.50;;;6.80;;
11048;SDS011;5577;42.706;23.160;2023-04-24T15:44:10;7.50;;;6.80;;
11048;SDS011;5577;42.706;23.160;2023-04-24T15:46:54;7.47;;;6.63;;
11048;SDS011;5577;42.706;23.160;2023-04-24T15:49:38;7.87;;;6.80;;
11048;SDS011;5577;42.706;23.160;2023-04-24T15:52:23;8.50;;;6.33;;
11048;SDS011;5577;42.706;23.160;2023-04-24T15:55:08;8.87;;;6.60;;
11048;SDS011;5577;42.706;23.160;2023-04-24T15:57:53;7.70;;;7.00;;
11048;SDS011;5577;42.706;23.160;2023-04-24T16:00:38;7.27;;;6.53;;
11048;SDS011;5577;42.706;23.160;2023-04-24T16:03:22;7.33;;;6.30;;
11048;SDS011;5577;42.706;23.160;2023-04-24T16:06:07;7.67;;;6.47;;
11048;SDS011;5577;42.706;23.160;2023-04-24T16:08:50;8.03;;;7.23;;
11048;SDS011;5577;42.706;23.160;2023-04-24T16:11:34;11.07;;;7.13;;
11048;SDS011;5577;42.706;23.160;2023-04-24T16:14:23;7.80;;;7.00;;
11048;SDS011;5577;42.706;23.160;2023-04-24T16:17:07;8.17;;;7.43;;
11048;SDS011;5577;42.706;23.160;2023-04-24T16:19:51;9.03;;;8.10;;
11048;SDS011;5577;42.706;23.160;2023-04-24T16:22:35;9.27;;;7.93;;
11048;SDS011;5577;42.706;23.160;2023-04-24T16:25:20;9.53;;;8.47;;
11048;SDS011;5577;42.706;23.160;2023-04-24T16:28:03;10.77;;;9.27;;